createdAt,value
2018-09-05T00:00:06.105Z,19.50
2018-09-05T00:05:09.834Z,19.30
2018-09-05T00:10:12.252Z,19.00
2018-09-05T00:20:24.746Z,18.60
2018-09-05T00:25:27.744Z,18.50
2018-09-05T00:30:29.909Z,18.20
2018-09-05T00:35:32.118Z,17.70
2018-09-05T00:40:34.569Z,18.00
2018-09-05T00:45:37.845Z,18.10
2018-09-05T00:50:40.630Z,18.10
2018-09-05T00:55:42.796Z,18.00
2018-09-05T01:00:45.001Z,18.10
2018-09-05T01:05:47.262Z,18.00
2018-09-05T01:10:51.129Z,18.00
2018-09-05T01:15:53.857Z,17.80
2018-09-05T01:20:56.054Z,17.80
2018-09-05T01:25:58.229Z,17.70
2018-09-05T01:31:00.713Z,17.70
2018-09-05T01:36:10.916Z,17.60
2018-09-05T01:41:14.265Z,17.50
2018-09-05T01:46:16.862Z,17.30
2018-09-05T01:51:19.973Z,17.10
2018-09-05T01:56:22.190Z,17.00
2018-09-05T02:01:24.285Z,17.00
2018-09-05T02:06:27.445Z,17.00
2018-09-05T02:11:29.685Z,17.10
2018-09-05T02:16:31.889Z,17.00
2018-09-05T02:21:34.997Z,16.90
2018-09-05T02:26:37.814Z,16.80
2018-09-05T02:31:40.001Z,16.80
2018-09-05T02:36:43.404Z,16.80
2018-09-05T02:41:48.703Z,16.50
2018-09-05T02:46:51.366Z,16.50
2018-09-05T02:51:53.573Z,16.60
2018-09-05T02:56:56.759Z,16.60
2018-09-05T03:02:00.163Z,16.60
2018-09-05T03:07:03.215Z,16.50
2018-09-05T03:12:05.585Z,16.40
2018-09-05T03:17:08.119Z,16.40
2018-09-05T03:22:10.482Z,16.40
2018-09-05T03:27:13.934Z,16.40
2018-09-05T03:32:17.383Z,16.30
2018-09-05T03:37:21.250Z,16.20
2018-09-05T03:42:24.823Z,16.30
2018-09-05T03:47:28.189Z,16.20
2018-09-05T03:52:31.306Z,16.20
2018-09-05T03:57:35.140Z,16.10
2018-09-05T04:02:37.886Z,16.00
2018-09-05T04:07:40.083Z,15.70
2018-09-05T04:12:42.270Z,15.70
2018-09-05T04:17:44.985Z,15.70
2018-09-05T04:22:48.010Z,15.70
2018-09-05T04:27:51.109Z,15.70
2018-09-05T04:32:53.397Z,15.60
2018-09-05T04:37:55.565Z,15.70
2018-09-05T04:42:57.703Z,15.70
2018-09-05T04:48:01.637Z,15.60
2018-09-05T04:53:06.291Z,15.50
2018-09-05T04:58:09.042Z,15.50
2018-09-05T05:03:11.343Z,15.50
2018-09-05T05:08:13.713Z,15.60
2018-09-05T05:13:16.001Z,15.60
2018-09-05T05:18:19.051Z,15.60
2018-09-05T05:23:21.421Z,15.60
2018-09-05T05:28:23.969Z,15.80
2018-09-05T05:33:26.526Z,16.10
2018-09-05T05:38:28.998Z,16.40
2018-09-05T05:43:33.785Z,16.50
2018-09-05T05:48:35.946Z,16.60
2018-09-05T05:53:40.553Z,16.90
2018-09-05T05:58:44.321Z,17.10
2018-09-05T06:03:48.121Z,17.30
2018-09-05T06:08:50.948Z,17.70
2018-09-05T06:13:53.337Z,17.90
2018-09-05T06:18:57.297Z,18.30
2018-09-05T06:24:00.537Z,18.80
2018-09-05T06:29:03.508Z,19.10
2018-09-05T06:34:06.023Z,19.30
2018-09-05T06:39:09.071Z,19.60
2018-09-05T06:44:12.286Z,19.90
2018-09-05T06:49:16.136Z,20.20
2018-09-05T06:54:19.697Z,20.50
2018-09-05T06:59:23.878Z,20.90
2018-09-05T07:04:28.101Z,21.10
2018-09-05T07:09:31.814Z,21.50
2018-09-05T07:14:35.304Z,21.80
2018-09-05T07:19:41.097Z,22.20
2018-09-05T07:24:43.519Z,22.50
2018-09-05T07:29:47.543Z,22.70
2018-09-05T07:34:51.442Z,23.10
2018-09-05T07:39:53.589Z,23.20
2018-09-05T07:44:56.567Z,23.50
2018-09-05T07:50:12.723Z,23.60
2018-09-05T07:55:16.358Z,23.90
2018-09-05T08:00:21.149Z,24.80
2018-09-05T08:05:23.490Z,24.70
2018-09-05T08:10:25.655Z,25.30
2018-09-05T08:15:27.798Z,25.40
2018-09-05T08:20:30.212Z,25.80
2018-09-05T08:25:36.113Z,26.00
2018-09-05T08:30:39.834Z,26.30
2018-09-05T08:35:42.424Z,26.40
2018-09-05T08:40:44.635Z,26.40
2018-09-05T08:45:47.544Z,27.10
2018-09-05T08:50:49.522Z,27.70
2018-09-05T08:55:51.723Z,27.30
2018-09-05T09:00:53.873Z,27.90
2018-09-05T09:05:56.519Z,28.60
2018-09-05T09:10:58.761Z,28.80
2018-09-05T09:16:00.903Z,28.60
2018-09-05T09:21:03.496Z,29.30
2018-09-05T09:26:06.909Z,29.40
2018-09-05T09:31:10.336Z,29.90
2018-09-05T09:36:12.577Z,30.50
2018-09-05T09:41:15.110Z,30.60
2018-09-05T09:46:17.642Z,31.60
2018-09-05T09:51:22.323Z,32.10
2018-09-05T09:56:24.822Z,32.70
2018-09-05T10:01:33.281Z,33.30
2018-09-05T10:06:39.881Z,33.70
2018-09-05T10:11:48.249Z,31.20
2018-09-05T10:16:56.403Z,30.40
2018-09-05T10:21:58.693Z,30.00
2018-09-05T10:27:01.537Z,29.80
2018-09-05T10:32:03.737Z,29.60
2018-09-05T10:37:05.893Z,29.70
2018-09-05T10:42:08.369Z,29.90
2018-09-05T10:47:10.540Z,29.60
2018-09-05T10:52:12.698Z,29.70
2018-09-05T10:57:14.845Z,29.10
2018-09-05T11:02:17.738Z,28.20
2018-09-05T11:07:20.345Z,29.30
2018-09-05T11:12:22.570Z,29.30
2018-09-05T11:17:24.725Z,29.80
2018-09-05T11:22:27.153Z,29.60
2018-09-05T11:27:29.594Z,29.50
2018-09-05T11:32:31.782Z,29.60
2018-09-05T11:37:34.310Z,29.20
2018-09-05T11:42:36.478Z,29.20
2018-09-05T11:47:38.761Z,29.40
2018-09-05T11:52:41.015Z,29.40
2018-09-05T11:57:44.153Z,29.40
2018-09-05T12:02:46.414Z,29.90
2018-09-05T12:07:48.932Z,28.90
2018-09-05T12:12:51.226Z,28.70
2018-09-05T12:17:53.748Z,28.50
2018-09-05T12:22:56.281Z,28.50
2018-09-05T12:27:58.426Z,28.50
2018-09-05T12:33:00.753Z,28.80
2018-09-05T12:38:03.694Z,29.10
2018-09-05T12:43:06.207Z,29.00
2018-09-05T12:48:08.870Z,28.70
2018-09-05T12:53:11.585Z,28.90
2018-09-05T12:58:14.090Z,28.90
2018-09-05T13:03:16.269Z,29.40
2018-09-05T13:08:18.460Z,29.10
2018-09-05T13:13:20.630Z,29.30
2018-09-05T13:18:22.784Z,28.90
2018-09-05T13:23:24.949Z,29.00
2018-09-05T13:28:27.122Z,29.00
2018-09-05T13:33:29.944Z,28.60
2018-09-05T13:38:32.178Z,28.70
2018-09-05T13:43:34.557Z,28.90
2018-09-05T13:48:36.689Z,29.00
2018-09-05T13:53:38.873Z,29.00
2018-09-05T13:58:41.402Z,29.00
2018-09-05T14:03:43.605Z,28.90
2018-09-05T14:08:45.790Z,28.80
2018-09-05T14:13:47.974Z,28.80
2018-09-05T14:18:50.123Z,28.70
2018-09-05T14:23:52.333Z,28.70
2018-09-05T14:28:55.432Z,28.80
2018-09-05T14:33:59.448Z,29.00
2018-09-05T14:39:01.822Z,28.90
2018-09-05T14:44:04.157Z,28.90
2018-09-05T14:49:06.512Z,28.90
2018-09-05T14:54:08.824Z,28.70
2018-09-05T14:59:11.065Z,28.90
2018-09-05T15:04:13.454Z,28.80
2018-09-05T15:09:16.101Z,28.80
2018-09-05T15:14:18.343Z,28.50
2018-09-05T15:19:20.532Z,28.70
2018-09-05T15:24:22.907Z,28.50
2018-09-05T15:29:25.205Z,28.50
2018-09-05T15:34:27.361Z,28.60
2018-09-05T15:39:29.581Z,28.60
2018-09-05T15:44:31.661Z,28.50
2018-09-05T15:49:33.948Z,28.20
2018-09-05T15:54:36.306Z,28.30
2018-09-05T15:59:38.620Z,28.50
2018-09-05T16:04:40.827Z,28.50
2018-09-05T16:09:42.962Z,28.30
2018-09-05T16:14:45.101Z,28.20
2018-09-05T16:19:47.273Z,28.30
2018-09-05T16:24:50.023Z,28.20
2018-09-05T16:29:52.346Z,28.10
2018-09-05T16:34:54.609Z,28.10
2018-09-05T16:39:56.742Z,28.10
2018-09-05T16:44:59.202Z,28.00
2018-09-05T16:50:01.434Z,27.90
2018-09-05T16:55:03.974Z,27.90
2018-09-05T17:00:06.752Z,27.80
2018-09-05T17:05:08.917Z,27.70
2018-09-05T17:10:11.277Z,27.70
2018-09-05T17:15:13.486Z,27.60
2018-09-05T17:20:15.637Z,27.50
2018-09-05T17:25:18.147Z,27.40
2018-09-05T17:30:21.454Z,27.30
2018-09-05T17:35:23.802Z,27.10
2018-09-05T17:40:26.420Z,26.80
2018-09-05T17:45:32.322Z,26.70
2018-09-05T17:50:35.025Z,26.50
2018-09-05T17:55:37.237Z,26.20
2018-09-05T18:00:40.647Z,25.90
2018-09-05T18:05:43.007Z,25.80
2018-09-05T18:10:45.242Z,25.50
2018-09-05T18:15:47.561Z,25.30
2018-09-05T18:20:49.714Z,25.10
2018-09-05T18:25:52.037Z,24.90
2018-09-05T18:30:54.649Z,24.70
2018-09-05T18:35:56.870Z,24.50
2018-09-05T18:40:59.149Z,24.40
2018-09-05T18:46:01.381Z,24.20
2018-09-05T18:51:03.581Z,24.20
2018-09-05T18:56:07.018Z,24.00
2018-09-05T19:01:09.470Z,23.90
2018-09-05T19:06:11.726Z,23.80
2018-09-05T19:11:13.867Z,23.70
2018-09-05T19:16:16.069Z,23.50
2018-09-05T19:21:18.274Z,23.40
2018-09-05T19:26:20.538Z,23.40
2018-09-05T19:31:22.869Z,23.40
2018-09-05T19:36:25.065Z,23.20
2018-09-05T19:41:27.938Z,23.10
2018-09-05T19:46:33.386Z,23.10
2018-09-05T19:51:35.524Z,23.00
2018-09-05T19:56:37.702Z,23.00
2018-09-05T20:01:39.861Z,22.80
2018-09-05T20:06:42.453Z,22.80
2018-09-05T20:11:45.224Z,22.70
2018-09-05T20:16:47.736Z,22.70
2018-09-05T20:21:49.937Z,22.60
2018-09-05T20:26:52.949Z,22.60
2018-09-05T20:31:56.862Z,22.60
2018-09-05T20:36:59.455Z,22.50
2018-09-05T20:42:01.634Z,22.50
2018-09-05T20:47:04.174Z,22.50
2018-09-05T20:52:06.377Z,22.50
2018-09-05T20:57:08.465Z,22.40
2018-09-05T21:02:11.433Z,22.50
2018-09-05T21:07:13.700Z,22.50
2018-09-05T21:12:15.885Z,22.40
2018-09-05T21:17:19.263Z,22.40
2018-09-05T21:22:23.180Z,22.50
2018-09-05T21:27:25.445Z,22.40
2018-09-05T21:32:27.717Z,22.30
2018-09-05T21:37:30.281Z,22.30
2018-09-05T21:42:32.452Z,22.30
2018-09-05T21:47:34.629Z,22.20
2018-09-05T21:52:36.919Z,22.20
2018-09-05T21:57:39.839Z,22.20
2018-09-05T22:02:41.994Z,22.20
2018-09-05T22:07:44.158Z,22.20
2018-09-05T22:12:48.343Z,22.20
2018-09-05T22:17:53.574Z,22.20
2018-09-05T22:22:57.018Z,22.00
2018-09-05T22:28:01.159Z,22.00
2018-09-05T22:33:04.699Z,21.80
2018-09-05T22:38:06.904Z,21.50
2018-09-05T22:43:20.733Z,21.30
2018-09-05T22:49:53.447Z,21.10
2018-09-05T22:55:16.505Z,20.90
2018-09-05T23:02:49.962Z,20.50
2018-09-05T23:08:57.643Z,20.40
2018-09-05T23:15:10.424Z,20.20
2018-09-05T23:20:31.458Z,20.10
2018-09-05T23:25:35.738Z,19.80
2018-09-05T23:30:39.618Z,19.70
2018-09-05T23:35:41.938Z,19.50
2018-09-05T23:40:44.102Z,19.50
2018-09-05T23:45:46.487Z,19.50
2018-09-05T23:50:48.722Z,19.60
2018-09-05T23:55:50.888Z,19.50
